Time;durP1;ratioP1;P1;durP2;ratioP2;P2;SDS_P1;SDS_P2;PMS_P1;PMS_P2;Temp;Humidity;BMP_temperature;BMP_pressure;BME280_temperature;BME280_humidity;BME280_pressure;Samples;Min_cycle;Max_cycle;Signal;HPM_P1;HPM_P2
2020/12/17 00:01:26;;;;;;;7.18;4.78;;;4.50;74.70;;;;;;5056904;28;20030;-63
2020/12/17 00:03:52;;;;;;;8.98;5.53;;;4.60;74.50;;;;;;5049216;28;20032;-63
2020/12/17 00:06:17;;;;;;;7.95;5.00;;;4.60;74.70;;;;;;5041908;28;20025;-62
2020/12/17 00:08:43;;;;;;;10.82;5.97;;;4.60;74.50;;;;;;5054418;28;20524;-63
2020/12/17 00:11:09;;;;;;;8.00;5.18;;;4.60;74.60;;;;;;5039171;28;20408;-63
2020/12/17 00:13:34;;;;;;;9.32;5.80;;;4.60;74.70;;;;;;5054811;28;20096;-63
2020/12/17 00:16:00;;;;;;;8.77;5.45;;;4.70;74.70;;;;;;5053725;28;20017;-63
2020/12/17 00:18:26;;;;;;;10.35;6.10;;;4.70;74.70;;;;;;5053628;28;20507;-62
2020/12/17 00:20:52;;;;;;;8.82;5.43;;;4.70;74.70;;;;;;5052572;28;20063;-63
2020/12/17 00:23:17;;;;;;;8.60;5.70;;;4.70;74.60;;;;;;5041711;28;20040;-63
2020/12/17 00:25:43;;;;;;;9.35;6.32;;;4.70;74.50;;;;;;5048942;28;20025;-63
2020/12/17 00:28:09;;;;;;;8.70;5.85;;;4.70;74.60;;;;;;5036507;28;20393;-63
2020/12/17 00:30:34;;;;;;;9.50;5.90;;;4.70;74.70;;;;;;5051325;28;20473;-63
2020/12/17 00:33:00;;;;;;;7.35;5.00;;;4.80;74.70;;;;;;5052128;28;20404;-63
2020/12/17 00:35:26;;;;;;;9.50;5.50;;;4.80;74.60;;;;;;5053104;28;20377;-63
2020/12/17 00:37:51;;;;;;;8.77;5.60;;;4.80;74.60;;;;;;5039959;28;20013;-63
2020/12/17 00:40:17;;;;;;;8.32;5.88;;;4.80;74.60;;;;;;5053246;28;20032;-63
2020/12/17 00:42:45;;;;;;;8.73;5.60;;;4.80;74.70;;;;;;5053217;28;20024;-63
2020/12/17 00:45:12;;;;;;;9.68;5.03;;;4.80;74.70;;;;;;5046237;28;20053;-63
2020/12/17 00:47:38;;;;;;;9.52;5.38;;;4.80;74.30;;;;;;5052585;28;20059;-63
2020/12/17 00:50:08;;;;;;;8.25;5.28;;;4.80;74.20;;;;;;5053314;28;20365;-63
2020/12/17 00:52:38;;;;;;;8.55;5.38;;;4.80;75.00;;;;;;5052604;28;20047;-63
2020/12/17 00:55:05;;;;;;;8.63;5.18;;;4.80;74.20;;;;;;5053230;28;20327;-63
2020/12/17 00:57:30;;;;;;;6.97;4.68;;;4.70;74.30;;;;;;5042631;28;20025;-63
2020/12/17 00:59:56;;;;;;;8.80;5.22;;;4.70;74.50;;;;;;5052614;28;20446;-63
2020/12/17 01:02:22;;;;;;;8.60;5.68;;;4.70;74.40;;;;;;5053000;28;20029;-63
2020/12/17 01:04:49;;;;;;;9.93;6.00;;;4.70;74.70;;;;;;5050179;28;20393;-63
2020/12/17 01:07:15;;;;;;;11.20;6.25;;;4.70;74.50;;;;;;5044152;28;20025;-63
2020/12/17 01:09:41;;;;;;;9.32;5.80;;;4.70;74.70;;;;;;5052484;28;20108;-63
2020/12/17 01:12:08;;;;;;;9.25;5.32;;;4.70;74.90;;;;;;5053332;28;20481;-63
2020/12/17 01:14:34;;;;;;;9.02;5.63;;;4.70;74.90;;;;;;5053056;28;20029;-63
2020/12/17 01:17:01;;;;;;;8.15;5.30;;;4.70;74.70;;;;;;5038158;28;20025;-63
2020/12/17 01:19:28;;;;;;;8.23;5.10;;;4.70;74.40;;;;;;5048073;28;20362;-63
2020/12/17 01:21:53;;;;;;;8.80;5.55;;;4.70;74.50;;;;;;5050914;28;20021;-63
2020/12/17 01:24:19;;;;;;;8.80;5.35;;;4.70;74.50;;;;;;5055336;28;20026;-63
2020/12/17 01:26:45;;;;;;;8.70;5.60;;;4.70;74.50;;;;;;5048340;28;20445;-63
2020/12/17 01:29:10;;;;;;;7.78;4.95;;;4.70;74.70;;;;;;5053144;28;20108;-63
2020/12/17 01:31:36;;;;;;;8.10;5.32;;;4.70;74.80;;;;;;5046715;28;20077;-63
2020/12/17 01:34:02;;;;;;;8.75;5.90;;;4.70;74.50;;;;;;5014929;28;20073;-63
2020/12/17 01:36:28;;;;;;;9.45;5.65;;;4.70;74.90;;;;;;5041809;28;20095;-63
2020/12/17 01:38:53;;;;;;;8.38;5.93;;;4.70;75.00;;;;;;5039629;28;20108;-63
2020/12/17 01:41:19;;;;;;;10.20;5.80;;;4.80;74.90;;;;;;5031812;28;20083;-63
2020/12/17 01:43:46;;;;;;;9.07;6.25;;;4.80;75.00;;;;;;5027933;28;20076;-63
2020/12/17 01:46:14;;;;;;;10.90;5.78;;;4.80;74.90;;;;;;5023537;28;20552;-63
2020/12/17 01:48:41;;;;;;;8.55;5.82;;;4.80;74.70;;;;;;5033668;28;20028;-63
2020/12/17 01:51:08;;;;;;;10.10;5.32;;;4.90;74.70;;;;;;5028111;28;20037;-63
2020/12/17 01:53:40;;;;;;;8.40;5.70;;;4.90;74.90;;;;;;5024511;28;20026;-63
2020/12/17 01:56:26;;;;;;;8.05;5.78;;;4.90;74.90;;;;;;5014053;28;20022;-63
2020/12/17 01:59:12;;;;;;;9.35;5.80;;;4.90;74.50;;;;;;5030078;28;20369;-63
2020/12/17 02:01:43;;;;;;;7.70;5.90;;;4.90;74.70;;;;;;5022517;28;20026;-63
2020/12/17 02:04:09;;;;;;;8.38;4.90;;;4.90;74.50;;;;;;5032078;28;20041;-63
2020/12/17 02:06:35;;;;;;;7.07;4.45;;;4.90;74.50;;;;;;5032395;28;20069;-63
2020/12/17 02:09:02;;;;;;;9.32;5.45;;;4.90;74.20;;;;;;5031363;28;20053;-63
2020/12/17 02:11:28;;;;;;;7.28;5.25;;;4.90;74.40;;;;;;5023707;28;20129;-63
2020/12/17 02:13:53;;;;;;;6.30;5.13;;;5.00;74.50;;;;;;5014285;28;20026;-63
2020/12/17 02:16:19;;;;;;;6.57;4.53;;;5.00;74.40;;;;;;5027117;28;20044;-63
2020/12/17 02:18:45;;;;;;;8.43;4.80;;;4.90;74.40;;;;;;5012415;28;20018;-63
2020/12/17 02:21:12;;;;;;;7.72;4.80;;;4.90;74.20;;;;;;5040820;28;20026;-63
2020/12/17 02:23:38;;;;;;;7.75;4.60;;;5.00;74.20;;;;;;5021136;28;20442;-63
2020/12/17 02:26:05;;;;;;;6.07;4.20;;;4.90;74.50;;;;;;5031378;28;20018;-63
2020/12/17 02:28:31;;;;;;;9.20;5.25;;;4.90;74.70;;;;;;5045729;28;20045;-63
2020/12/17 02:30:57;;;;;;;7.47;5.15;;;4.90;74.70;;;;;;5051488;28;20025;-63
2020/12/17 02:33:22;;;;;;;7.97;4.97;;;4.90;74.60;;;;;;5034853;28;20426;-63
2020/12/17 02:35:49;;;;;;;8.55;5.10;;;4.90;74.60;;;;;;5054072;28;20092;-63
2020/12/17 02:38:14;;;;;;;8.48;5.47;;;4.90;74.60;;;;;;5061785;28;20049;-63
2020/12/17 02:40:40;;;;;;;9.23;6.28;;;4.90;74.70;;;;;;5051346;28;20072;-63
2020/12/17 02:43:08;;;;;;;8.48;5.85;;;4.90;74.80;;;;;;5044463;28;20494;-63
2020/12/17 02:45:34;;;;;;;10.93;7.30;;;4.90;74.80;;;;;;5051831;28;20056;-63
2020/12/17 02:48:00;;;;;;;12.30;7.05;;;4.90;74.70;;;;;;5045002;28;20107;-63
2020/12/17 02:50:26;;;;;;;8.70;5.63;;;5.00;74.70;;;;;;5046908;28;20029;-63
2020/12/17 02:52:51;;;;;;;9.73;6.93;;;4.90;74.60;;;;;;5054022;28;20417;-63
2020/12/17 02:55:17;;;;;;;9.30;6.20;;;5.00;74.70;;;;;;5055935;28;20481;-63
2020/12/17 02:57:43;;;;;;;10.77;7.85;;;5.00;74.70;;;;;;5055817;28;20318;-63
2020/12/17 03:00:11;;;;;;;10.40;7.13;;;5.00;74.50;;;;;;5055872;28;20058;-63
2020/12/17 03:02:37;;;;;;;10.57;6.75;;;5.00;74.70;;;;;;5055567;28;20057;-63
2020/12/17 03:05:05;;;;;;;13.38;8.27;;;5.00;74.70;;;;;;5055345;28;20052;-63
2020/12/17 03:07:31;;;;;;;13.23;8.63;;;5.00;74.70;;;;;;5055224;28;20037;-63
2020/12/17 03:09:56;;;;;;;13.30;7.95;;;5.00;74.70;;;;;;5049383;28;20093;-63
2020/12/17 03:12:22;;;;;;;12.68;8.30;;;5.00;74.60;;;;;;5047251;28;20021;-63
2020/12/17 03:14:48;;;;;;;12.65;7.38;;;5.00;74.70;;;;;;5051125;28;20365;-63
2020/12/17 03:17:14;;;;;;;12.45;8.57;;;4.90;74.70;;;;;;5035865;28;20103;-63
2020/12/17 03:19:39;;;;;;;11.98;8.10;;;4.90;74.50;;;;;;5037099;28;20021;-63
2020/12/17 03:22:05;;;;;;;11.95;7.53;;;4.90;74.90;;;;;;5055140;28;20110;-63
2020/12/17 03:24:31;;;;;;;11.35;7.25;;;4.90;75.00;;;;;;5052143;28;20078;-63
2020/12/17 03:26:56;;;;;;;14.13;7.75;;;4.90;75.00;;;;;;5044124;28;20021;-63
2020/12/17 03:29:22;;;;;;;12.23;7.63;;;4.90;74.70;;;;;;5039683;28;20022;-63
2020/12/17 03:31:48;;;;;;;12.60;7.57;;;4.90;74.80;;;;;;5015845;28;20438;-63
2020/12/17 03:34:14;;;;;;;12.98;7.57;;;4.90;74.70;;;;;;5015623;28;20057;-63
2020/12/17 03:36:39;;;;;;;13.40;7.45;;;4.90;74.70;;;;;;5023868;28;20158;-63
2020/12/17 03:39:05;;;;;;;12.55;7.15;;;4.90;74.70;;;;;;5017567;28;20024;-63
2020/12/17 03:41:30;;;;;;;8.85;6.00;;;4.80;74.70;;;;;;5024566;28;20037;-62
2020/12/17 03:43:56;;;;;;;10.63;5.38;;;4.80;74.50;;;;;;5015694;28;20182;-63
2020/12/17 03:46:22;;;;;;;8.38;5.55;;;4.70;74.40;;;;;;5015431;28;20030;-63
2020/12/17 03:48:48;;;;;;;7.93;5.22;;;4.70;74.20;;;;;;5015384;28;20100;-63
2020/12/17 03:51:14;;;;;;;9.50;6.38;;;4.60;74.30;;;;;;5032432;28;20025;-63
2020/12/17 03:53:40;;;;;;;9.73;6.50;;;4.60;74.40;;;;;;5022858;28;20398;-62
2020/12/17 03:56:05;;;;;;;11.40;7.85;;;4.50;74.50;;;;;;5028473;28;20018;-63
2020/12/17 03:58:31;;;;;;;12.48;8.68;;;4.50;74.80;;;;;;5015173;28;20490;-63
2020/12/17 04:00:57;;;;;;;10.50;7.82;;;4.50;74.90;;;;;;5029815;28;20022;-63
2020/12/17 04:03:22;;;;;;;12.45;8.88;;;4.50;74.90;;;;;;5024472;28;20040;-63
2020/12/17 04:05:48;;;;;;;11.93;8.45;;;4.50;75.60;;;;;;5034808;28;20404;-63
2020/12/17 04:08:14;;;;;;;11.50;8.35;;;4.50;75.00;;;;;;5028114;28;20454;-63
2020/12/17 04:10:40;;;;;;;11.82;9.35;;;4.50;75.20;;;;;;5014813;28;20045;-63
2020/12/17 04:13:05;;;;;;;13.27;10.35;;;4.50;75.40;;;;;;5014448;28;20022;-63
2020/12/17 04:15:31;;;;;;;11.80;8.02;;;4.50;75.50;;;;;;5024003;28;20496;-63
2020/12/17 04:17:57;;;;;;;11.63;8.48;;;4.50;75.50;;;;;;5032552;28;20155;-62
2020/12/17 04:20:22;;;;;;;15.02;9.68;;;4.50;75.20;;;;;;5022109;28;20548;-63
2020/12/17 04:22:48;;;;;;;15.10;9.50;;;4.60;75.40;;;;;;5034241;28;20022;-62
2020/12/17 04:25:14;;;;;;;10.68;7.32;;;4.60;75.40;;;;;;5024648;28;20501;-63
2020/12/17 04:27:39;;;;;;;10.93;7.90;;;4.60;75.30;;;;;;5042948;28;20072;-63
2020/12/17 04:30:05;;;;;;;11.60;7.90;;;4.60;75.10;;;;;;5053797;28;20025;-63
2020/12/17 04:32:31;;;;;;;11.15;8.55;;;4.60;75.10;;;;;;5034194;28;20021;-63
2020/12/17 04:34:56;;;;;;;11.63;7.68;;;4.60;75.10;;;;;;5022883;28;20451;-63
2020/12/17 04:37:22;;;;;;;14.20;8.40;;;4.70;75.20;;;;;;5028387;28;20053;-63
2020/12/17 04:39:48;;;;;;;10.45;7.88;;;4.70;75.20;;;;;;5033911;28;20018;-63
2020/12/17 04:42:15;;;;;;;10.13;6.97;;;4.70;75.20;;;;;;5032095;28;20033;-63
2020/12/17 04:44:43;;;;;;;9.60;7.25;;;4.70;75.00;;;;;;5021896;28;20017;-63
2020/12/17 04:47:11;;;;;;;9.63;6.78;;;4.70;75.10;;;;;;5020316;28;20033;-62
2020/12/17 04:49:47;;;;;;;9.70;6.47;;;4.70;75.20;;;;;;5013935;28;20029;-63
2020/12/17 04:52:14;;;;;;;9.07;6.43;;;4.70;75.30;;;;;;5027432;28;20049;-62
2020/12/17 04:54:40;;;;;;;11.23;7.30;;;4.70;75.40;;;;;;5024609;28;20017;-62
2020/12/17 04:57:14;;;;;;;10.25;7.40;;;4.70;75.40;;;;;;5033650;28;20032;-62
2020/12/17 04:59:44;;;;;;;9.70;6.95;;;4.70;75.40;;;;;;5046994;28;20028;-63
2020/12/17 05:02:10;;;;;;;10.77;8.30;;;4.70;75.20;;;;;;5021792;28;20033;-62
2020/12/17 05:04:41;;;;;;;10.80;8.13;;;4.70;75.30;;;;;;5027110;28;20022;-62
2020/12/17 05:07:09;;;;;;;11.77;7.10;;;4.70;75.40;;;;;;5024009;28;20022;-63
2020/12/17 05:09:36;;;;;;;13.05;8.30;;;4.70;75.30;;;;;;5025527;28;20029;-63
2020/12/17 05:12:03;;;;;;;10.82;7.53;;;4.70;75.30;;;;;;5021074;28;20061;-63
2020/12/17 05:14:29;;;;;;;9.40;6.47;;;4.70;75.30;;;;;;5025460;28;20466;-63
2020/12/17 05:16:56;;;;;;;9.93;7.18;;;4.60;75.20;;;;;;5045468;28;20072;-63
2020/12/17 05:19:25;;;;;;;10.40;7.22;;;4.60;75.30;;;;;;5046127;28;20021;-63
2020/12/17 05:21:52;;;;;;;11.27;7.63;;;4.60;75.30;;;;;;5019155;28;20397;-63
2020/12/17 05:24:22;;;;;;;10.93;6.68;;;4.60;75.30;;;;;;5029601;28;20048;-63
2020/12/17 05:26:49;;;;;;;9.60;6.63;;;4.60;75.30;;;;;;5028106;28;20013;-63
2020/12/17 05:29:19;;;;;;;8.25;5.80;;;4.60;75.10;;;;;;5052202;28;20071;-63
2020/12/17 05:31:46;;;;;;;9.77;6.22;;;4.60;75.10;;;;;;5052703;28;20496;-63
2020/12/17 05:34:13;;;;;;;9.95;6.45;;;4.60;75.30;;;;;;5057596;28;20025;-63
2020/12/17 05:36:42;;;;;;;11.05;7.03;;;4.60;75.40;;;;;;5052795;28;20092;-63
2020/12/17 05:39:09;;;;;;;11.93;7.45;;;4.60;75.30;;;;;;5052277;28;20025;-63
2020/12/17 05:41:36;;;;;;;12.90;8.30;;;4.50;75.50;;;;;;5052359;28;20025;-62
2020/12/17 05:44:28;;;;;;;10.00;7.35;;;4.50;75.50;;;;;;5053802;28;20033;-63
2020/12/17 05:46:55;;;;;;;9.57;6.53;;;4.50;75.50;;;;;;5057810;28;20033;-63
2020/12/17 05:49:26;;;;;;;15.52;8.98;;;4.50;75.40;;;;;;5052463;28;20032;-63
2020/12/17 05:52:09;;;;;;;13.45;7.70;;;4.50;75.60;;;;;;5052751;28;20029;-63
2020/12/17 05:54:35;;;;;;;13.43;8.18;;;4.50;75.50;;;;;;5051885;28;20061;-63
2020/12/17 05:57:12;;;;;;;15.15;8.07;;;4.50;75.70;;;;;;5022885;28;20359;-63
2020/12/17 05:59:39;;;;;;;13.95;8.63;;;4.50;75.80;;;;;;5051375;28;20032;-63
2020/12/17 06:02:30;;;;;;;14.02;8.27;;;4.50;75.90;;;;;;5052963;28;20529;-63
2020/12/17 06:05:12;;;;;;;11.60;6.90;;;4.60;76.00;;;;;;5047047;28;20090;-62
2020/12/17 06:07:45;;;;;;;12.27;7.50;;;4.60;75.80;;;;;;5052517;28;20037;-63
2020/12/17 06:10:18;;;;;;;12.75;7.50;;;4.60;76.00;;;;;;5053862;28;20095;-62
2020/12/17 06:12:46;;;;;;;11.10;7.03;;;4.60;75.80;;;;;;5052419;28;20100;-63
2020/12/17 06:15:18;;;;;;;13.75;7.47;;;4.60;75.90;;;;;;5052237;28;20064;-63
2020/12/17 06:17:49;;;;;;;11.25;6.90;;;4.60;76.20;;;;;;5039531;28;20029;-63
2020/12/17 06:20:16;;;;;;;9.95;6.93;;;4.70;76.20;;;;;;5038221;28;20628;-63
2020/12/17 06:22:50;;;;;;;10.40;7.18;;;4.70;76.10;;;;;;5035165;28;20087;-63
2020/12/17 06:25:17;;;;;;;9.82;6.72;;;4.70;76.10;;;;;;5042529;28;20036;-63
2020/12/17 06:27:48;;;;;;;12.25;7.60;;;4.70;75.80;;;;;;5041177;28;20057;-63
2020/12/17 06:30:21;;;;;;;12.18;8.07;;;4.70;75.70;;;;;;5035425;28;20029;-63
2020/12/17 06:32:47;;;;;;;11.02;7.72;;;4.80;75.90;;;;;;5035537;28;20486;-63
2020/12/17 06:35:24;;;;;;;11.27;7.55;;;4.80;76.10;;;;;;5044452;28;20453;-63
2020/12/17 06:37:53;;;;;;;12.98;7.47;;;4.80;76.30;;;;;;5023927;28;20377;-63
2020/12/17 06:40:28;;;;;;;11.00;7.22;;;4.80;76.60;;;;;;5022503;28;20026;-63
2020/12/17 06:42:55;;;;;;;10.55;7.38;;;4.80;75.70;;;;;;5024977;28;20068;-62
2020/12/17 06:45:31;;;;;;;10.95;7.45;;;4.80;75.70;;;;;;5030696;28;20028;-63
2020/12/17 06:47:58;;;;;;;12.73;8.13;;;4.90;75.80;;;;;;5025216;28;20026;-63
2020/12/17 06:50:38;;;;;;;12.30;7.65;;;4.80;75.70;;;;;;5017312;28;20030;-63
2020/12/17 06:53:12;;;;;;;10.57;7.53;;;4.90;75.70;;;;;;5026078;28;20407;-63
2020/12/17 06:55:46;;;;;;;11.02;7.70;;;4.80;75.80;;;;;;5025558;28;20036;-63
2020/12/17 06:58:25;;;;;;;12.20;7.55;;;4.80;75.90;;;;;;5022417;28;20046;-63
2020/12/17 07:00:54;;;;;;;12.05;7.82;;;4.90;76.10;;;;;;5025211;28;20037;-56
2020/12/17 07:03:42;;;;;;;11.13;7.18;;;4.90;76.10;;;;;;5025122;28;20554;-57
2020/12/17 07:06:25;;;;;;;10.13;6.88;;;4.90;75.90;;;;;;5023010;28;20045;-57
2020/12/17 07:08:52;;;;;;;11.85;6.80;;;4.90;75.80;;;;;;5023827;28;20037;-57
2020/12/17 07:11:44;;;;;;;11.32;7.88;;;4.90;76.00;;;;;;5025652;28;20022;-57
2020/12/17 07:14:36;;;;;;;11.95;7.03;;;5.00;76.10;;;;;;5027344;28;20396;-57
2020/12/17 07:17:06;;;;;;;9.63;7.03;;;5.00;75.90;;;;;;5023561;28;20026;-56
2020/12/17 07:19:44;;;;;;;12.27;7.63;;;5.00;76.10;;;;;;5022344;28;20049;-56
2020/12/17 07:22:15;;;;;;;12.38;8.15;;;5.00;76.10;;;;;;5019462;28;20112;-57
2020/12/17 07:24:48;;;;;;;10.95;7.72;;;5.00;76.00;;;;;;5021356;28;20499;-57
2020/12/17 07:27:21;;;;;;;15.23;9.43;;;5.10;76.30;;;;;;5024301;28;20041;-57
2020/12/17 07:29:51;;;;;;;12.40;8.23;;;5.10;76.20;;;;;;5034907;28;20152;-57
2020/12/17 07:32:24;;;;;;;17.90;12.18;;;5.20;75.90;;;;;;5043326;28;20075;-57
2020/12/17 07:34:51;;;;;;;20.70;13.48;;;5.20;75.70;;;;;;5046572;28;20464;-56
2020/12/17 07:37:41;;;;;;;19.90;14.02;;;5.20;75.50;;;;;;5049560;28;20025;-57
2020/12/17 07:40:20;;;;;;;19.33;13.00;;;5.20;75.40;;;;;;5050890;28;20025;-57
2020/12/17 07:42:55;;;;;;;20.25;13.40;;;5.20;75.30;;;;;;5044825;28;20090;-57
2020/12/17 07:45:48;;;;;;;15.57;10.82;;;5.20;75.20;;;;;;5038009;28;21292;-56
2020/12/17 07:48:32;;;;;;;19.15;12.50;;;5.30;75.00;;;;;;5043063;28;20032;-57
2020/12/17 07:50:58;;;;;;;18.30;13.05;;;5.20;74.80;;;;;;5046560;28;20484;-56
2020/12/17 07:53:25;;;;;;;15.55;10.50;;;5.20;75.00;;;;;;5045342;28;20393;-56
2020/12/17 07:55:51;;;;;;;18.20;13.02;;;5.30;75.40;;;;;;5036385;28;20025;-53
2020/12/17 07:58:17;;;;;;;17.67;11.90;;;5.30;75.20;;;;;;5019108;28;20029;-56
2020/12/17 08:00:43;;;;;;;21.77;13.55;;;5.40;75.40;;;;;;5019221;28;20056;-56
2020/12/17 08:03:10;;;;;;;15.73;11.88;;;5.40;75.40;;;;;;5040992;28;20056;-57
2020/12/17 08:05:36;;;;;;;19.30;12.73;;;5.40;75.40;;;;;;5040761;28;20452;-56
2020/12/17 08:08:02;;;;;;;16.73;12.18;;;5.50;75.40;;;;;;5038226;28;21158;-53
2020/12/17 08:10:35;;;;;;;19.40;13.35;;;5.50;75.40;;;;;;5026149;28;20036;-57
2020/12/17 08:13:01;;;;;;;18.48;12.45;;;5.50;75.40;;;;;;5035291;28;20026;-57
2020/12/17 08:15:27;;;;;;;16.38;12.82;;;5.50;75.60;;;;;;5040659;28;20374;-56
2020/12/17 08:17:57;;;;;;;18.35;12.38;;;5.60;75.40;;;;;;5025383;28;20025;-55
2020/12/17 08:20:27;;;;;;;19.85;12.77;;;5.70;75.40;;;;;;5043674;28;20075;-57
2020/12/17 08:22:53;;;;;;;23.48;15.23;;;5.70;75.40;;;;;;5039984;28;20057;-56
2020/12/17 08:25:20;;;;;;;16.85;11.88;;;5.70;75.50;;;;;;5027558;28;20063;-54
2020/12/17 08:27:51;;;;;;;17.75;12.65;;;5.80;75.40;;;;;;5024838;28;20072;-56
2020/12/17 08:30:24;;;;;;;16.70;12.07;;;5.80;74.90;;;;;;5025382;28;20055;-56
2020/12/17 08:32:52;;;;;;;17.02;11.57;;;5.90;75.00;;;;;;5025650;28;20949;-56
2020/12/17 08:35:21;;;;;;;16.48;12.00;;;5.80;74.80;;;;;;5030414;28;20025;-57
2020/12/17 08:37:53;;;;;;;16.73;12.40;;;5.90;74.80;;;;;;5023736;28;20029;-57
2020/12/17 08:40:26;;;;;;;17.75;13.32;;;5.90;75.10;;;;;;5035072;28;20028;-56
2020/12/17 08:43:11;;;;;;;18.52;14.25;;;5.90;75.20;;;;;;5041261;28;20045;-57
2020/12/17 08:45:39;;;;;;;16.77;11.15;;;6.00;75.00;;;;;;5039688;28;20040;-57
2020/12/17 08:48:08;;;;;;;16.83;10.82;;;6.00;75.00;;;;;;5043117;28;20025;-57
2020/12/17 08:50:37;;;;;;;15.38;10.98;;;6.00;74.60;;;;;;5035000;28;20056;-56
2020/12/17 08:53:30;;;;;;;18.67;11.88;;;6.00;74.80;;;;;;5037723;28;20039;-57
2020/12/17 08:56:10;;;;;;;15.32;11.45;;;6.10;74.70;;;;;;5032188;28;20075;-57
2020/12/17 08:58:59;;;;;;;15.13;10.95;;;6.10;74.80;;;;;;5031077;28;22524;-57
2020/12/17 09:01:34;;;;;;;19.65;13.52;;;6.10;74.70;;;;;;5033426;28;20083;-58
2020/12/17 09:04:06;;;;;;;20.80;14.65;;;6.20;74.60;;;;;;5037180;28;20033;-57
2020/12/17 09:06:33;;;;;;;21.25;15.30;;;6.10;74.10;;;;;;5039314;28;20370;-58
2020/12/17 09:09:25;;;;;;;20.10;13.98;;;6.10;74.00;;;;;;5040258;28;20399;-58
2020/12/17 09:11:52;;;;;;;17.35;12.73;;;6.20;73.90;;;;;;5029557;28;20033;-57
2020/12/17 09:14:21;;;;;;;18.73;13.27;;;6.20;74.10;;;;;;5034575;28;20828;-58
2020/12/17 09:16:51;;;;;;;21.80;13.55;;;6.20;74.10;;;;;;5032420;28;20374;-57
2020/12/17 09:19:17;;;;;;;21.02;12.60;;;6.20;74.00;;;;;;5036800;28;20060;-55
2020/12/17 09:22:00;;;;;;;15.13;10.88;;;6.20;74.10;;;;;;5035885;28;20119;-58
2020/12/17 09:24:29;;;;;;;14.15;10.82;;;6.30;73.90;;;;;;5037280;28;20492;-54
2020/12/17 09:26:56;;;;;;;16.80;11.25;;;6.30;73.80;;;;;;5039798;28;20033;-57
2020/12/17 09:29:22;;;;;;;18.42;12.23;;;6.30;73.60;;;;;;5028046;28;20049;-58
2020/12/17 09:31:48;;;;;;;17.45;10.45;;;6.30;73.70;;;;;;5025400;28;20056;-56
2020/12/17 09:34:16;;;;;;;14.65;10.23;;;6.30;73.80;;;;;;5031161;28;20033;-57
2020/12/17 09:37:03;;;;;;;15.15;10.48;;;6.30;73.80;;;;;;5019968;28;20025;-57
2020/12/17 09:39:30;;;;;;;15.63;10.43;;;6.30;73.50;;;;;;5032380;28;20037;-57
2020/12/17 09:41:57;;;;;;;15.05;10.02;;;6.40;73.40;;;;;;5036225;28;20524;-57
2020/12/17 09:44:31;;;;;;;14.38;9.25;;;6.40;73.40;;;;;;5035763;28;20040;-57
2020/12/17 09:47:02;;;;;;;14.98;9.98;;;6.40;73.30;;;;;;5032060;28;20044;-57
2020/12/17 09:49:33;;;;;;;15.13;10.60;;;6.30;73.40;;;;;;5034807;28;20071;-58
2020/12/17 09:52:01;;;;;;;15.60;11.02;;;6.30;73.40;;;;;;5032254;28;20434;-57
2020/12/17 09:54:27;;;;;;;17.42;11.30;;;6.30;73.30;;;;;;5037293;28;20022;-56
2020/12/17 09:57:19;;;;;;;14.38;9.95;;;6.30;73.20;;;;;;5033738;28;20033;-58
2020/12/17 09:59:45;;;;;;;16.90;9.98;;;6.30;73.30;;;;;;5034014;28;20075;-57
2020/12/17 10:02:13;;;;;;;14.68;10.23;;;6.30;74.10;;;;;;5031455;28;20402;-57
2020/12/17 10:04:40;;;;;;;14.52;10.77;;;6.30;73.70;;;;;;5037449;28;20032;-57
2020/12/17 10:07:07;;;;;;;21.38;11.85;;;6.30;73.50;;;;;;5038397;28;20028;-56
2020/12/17 10:09:33;;;;;;;16.58;11.20;;;6.20;73.80;;;;;;5039377;28;20028;-57
2020/12/17 10:11:59;;;;;;;19.73;12.05;;;6.30;73.80;;;;;;5036017;28;20040;-57
2020/12/17 10:14:27;;;;;;;16.38;11.10;;;6.30;73.80;;;;;;5037625;28;20060;-56
2020/12/17 10:16:57;;;;;;;19.90;12.02;;;6.40;73.50;;;;;;5035709;28;20044;-58
2020/12/17 10:19:24;;;;;;;20.83;13.82;;;6.40;73.50;;;;;;5037810;28;20059;-56
2020/12/17 10:21:50;;;;;;;18.58;11.90;;;6.40;73.60;;;;;;5035219;28;20120;-58
2020/12/17 10:24:15;;;;;;;19.75;13.45;;;6.40;73.60;;;;;;5034529;28;20032;-57
2020/12/17 10:26:41;;;;;;;18.35;11.93;;;6.40;73.60;;;;;;5036481;28;20087;-56
2020/12/17 10:29:08;;;;;;;19.20;12.45;;;6.40;73.60;;;;;;5022394;28;20077;-57
2020/12/17 10:31:34;;;;;;;23.30;13.32;;;6.40;73.40;;;;;;5013016;28;20041;-58
2020/12/17 10:34:00;;;;;;;17.85;12.07;;;6.40;73.60;;;;;;5014326;28;20105;-56
2020/12/17 10:36:26;;;;;;;18.92;12.52;;;6.40;73.40;;;;;;5019048;28;20022;-57
2020/12/17 10:38:52;;;;;;;19.13;12.52;;;6.40;73.40;;;;;;5020878;28;20038;-57
2020/12/17 10:41:24;;;;;;;18.40;12.70;;;6.40;73.50;;;;;;5016656;28;20033;-58
2020/12/17 10:43:50;;;;;;;19.70;12.27;;;6.40;73.50;;;;;;5015370;28;20079;-56
2020/12/17 10:46:16;;;;;;;20.10;13.05;;;6.40;73.40;;;;;;5019487;28;20032;-57
2020/12/17 10:48:41;;;;;;;18.95;12.77;;;6.40;73.50;;;;;;5017262;28;20038;-57
2020/12/17 10:51:07;;;;;;;19.88;12.85;;;6.40;73.60;;;;;;5016637;28;20077;-56
2020/12/17 10:53:33;;;;;;;22.85;13.98;;;6.40;73.50;;;;;;5018224;28;20041;-56
2020/12/17 10:55:59;;;;;;;19.77;12.60;;;6.40;73.60;;;;;;5018246;28;20113;-57
2020/12/17 10:58:24;;;;;;;19.88;12.45;;;6.40;73.70;;;;;;5016841;28;20038;-58
2020/12/17 11:00:50;;;;;;;17.05;12.90;;;6.40;73.70;;;;;;5018445;28;20040;-58
2020/12/17 11:03:16;;;;;;;23.73;14.23;;;6.40;73.70;;;;;;5014604;28;20029;-57
2020/12/17 11:05:41;;;;;;;24.92;15.95;;;6.40;73.50;;;;;;5016548;28;20030;-58
2020/12/17 11:08:07;;;;;;;21.52;13.88;;;6.50;73.60;;;;;;5001011;28;20148;-58
2020/12/17 11:10:33;;;;;;;25.13;15.40;;;6.50;73.40;;;;;;5013904;28;20310;-58
2020/12/17 11:12:58;;;;;;;24.15;14.85;;;6.50;73.60;;;;;;5012946;28;20080;-58
2020/12/17 11:15:24;;;;;;;28.30;17.15;;;6.50;73.50;;;;;;5013195;28;20029;-56
2020/12/17 11:17:51;;;;;;;19.40;14.05;;;6.50;73.30;;;;;;5006292;28;20454;-57
2020/12/17 11:20:19;;;;;;;23.98;14.45;;;6.60;73.30;;;;;;5008904;28;21452;-55
2020/12/17 11:22:45;;;;;;;20.13;13.95;;;6.60;73.40;;;;;;5007168;28;20029;-58
2020/12/17 11:25:11;;;;;;;22.45;16.45;;;6.60;73.40;;;;;;5000168;28;20033;-58
2020/12/17 11:27:38;;;;;;;22.08;14.68;;;6.50;73.40;;;;;;5010620;28;20092;-57
2020/12/17 11:30:07;;;;;;;23.65;14.77;;;6.50;73.20;;;;;;5030566;28;20032;-58
2020/12/17 11:32:33;;;;;;;19.92;14.50;;;6.60;73.20;;;;;;5032980;28;20093;-58
2020/12/17 11:35:06;;;;;;;21.05;13.35;;;6.50;73.30;;;;;;5023093;28;20056;-58
2020/12/17 11:37:33;;;;;;;19.73;12.63;;;6.60;73.20;;;;;;5036152;28;20108;-57
2020/12/17 11:39:58;;;;;;;22.73;14.02;;;6.50;73.20;;;;;;5039247;28;20040;-58
2020/12/17 11:42:24;;;;;;;21.08;14.05;;;6.50;73.20;;;;;;5039606;28;20397;-57
2020/12/17 11:44:50;;;;;;;23.20;14.38;;;6.50;73.40;;;;;;5037347;28;20036;-57
2020/12/17 11:47:15;;;;;;;19.40;13.45;;;6.50;73.50;;;;;;5039365;28;20152;-57
2020/12/17 11:49:41;;;;;;;22.60;14.23;;;6.50;73.60;;;;;;5035739;28;20040;-57
2020/12/17 11:52:08;;;;;;;19.50;13.75;;;6.50;73.50;;;;;;5015294;28;20059;-58
2020/12/17 11:54:33;;;;;;;18.30;12.45;;;6.50;73.40;;;;;;5032606;28;20067;-58
2020/12/17 11:56:59;;;;;;;20.60;12.77;;;6.60;73.30;;;;;;5033892;28;20131;-58
2020/12/17 11:59:27;;;;;;;19.58;12.90;;;6.60;73.20;;;;;;5021408;28;20048;-59
2020/12/17 12:01:53;;;;;;;16.20;12.55;;;6.60;73.30;;;;;;5033573;28;20091;-58
2020/12/17 12:04:19;;;;;;;19.77;13.10;;;6.60;73.40;;;;;;5032405;28;22243;-57
2020/12/17 12:06:49;;;;;;;17.17;11.23;;;6.60;73.30;;;;;;5013757;28;20116;-56
2020/12/17 12:09:18;;;;;;;16.60;11.55;;;6.70;73.20;;;;;;5032213;28;20033;-56
2020/12/17 12:12:01;;;;;;;19.50;12.65;;;6.60;73.00;;;;;;5021825;28;20072;-57
2020/12/17 12:14:27;;;;;;;20.17;13.73;;;6.60;73.00;;;;;;5036572;28;20052;-57
2020/12/17 12:16:53;;;;;;;19.48;14.13;;;6.60;73.10;;;;;;5022566;28;20036;-57
2020/12/17 12:19:19;;;;;;;19.92;13.88;;;6.60;73.40;;;;;;5032538;28;20040;-58
2020/12/17 12:21:51;;;;;;;22.42;14.18;;;6.60;73.20;;;;;;5032407;28;20573;-58
2020/12/17 12:24:18;;;;;;;18.75;12.48;;;6.60;72.80;;;;;;5030148;28;20087;-58
2020/12/17 12:26:44;;;;;;;20.33;13.93;;;6.60;72.70;;;;;;5029513;28;22024;-58
2020/12/17 12:29:10;;;;;;;21.08;12.80;;;6.60;72.80;;;;;;5040032;28;20044;-58
2020/12/17 12:31:36;;;;;;;19.95;13.00;;;6.70;72.80;;;;;;5018284;28;20025;-57
2020/12/17 12:34:02;;;;;;;19.08;13.82;;;6.70;72.80;;;;;;5032618;28;20024;-57
2020/12/17 12:36:27;;;;;;;19.55;12.52;;;6.60;73.10;;;;;;5032616;28;20600;-58
2020/12/17 12:38:54;;;;;;;19.88;13.88;;;6.60;72.90;;;;;;5035205;28;20068;-58
2020/12/17 12:41:20;;;;;;;20.40;14.50;;;6.60;73.00;;;;;;5034697;28;20033;-58
2020/12/17 12:43:46;;;;;;;17.10;12.88;;;6.60;73.30;;;;;;5037342;28;20618;-58
2020/12/17 12:46:17;;;;;;;18.10;12.98;;;6.70;73.10;;;;;;5025610;28;20041;-57
2020/12/17 12:48:43;;;;;;;19.53;13.00;;;6.70;73.20;;;;;;5042287;28;20443;-58
2020/12/17 12:51:09;;;;;;;18.48;12.93;;;6.60;72.90;;;;;;5039539;28;20336;-58
2020/12/17 12:53:36;;;;;;;19.10;12.60;;;6.60;73.20;;;;;;5023407;28;20040;-56